Time;durP1;ratioP1;P1;durP2;ratioP2;P2;SDS_P1;SDS_P2;PMS_P1;PMS_P2;Temp;Humidity;BMP_temperature;BMP_pressure;BME280_temperature;BME280_humidity;BME280_pressure;Samples;Min_cycle;Max_cycle;Signal;HPM_P1;HPM_P2
2022/03/11 00:02:02;;;;;;;20.10;12.43;;;4.10;1.00;;;;;;5115918;28;20204;-62
2022/03/11 00:04:28;;;;;;;19.37;12.80;;;4.00;1.00;;;;;;5117223;28;20711;-62
2022/03/11 00:06:53;;;;;;;17.90;12.17;;;4.00;1.00;;;;;;5116183;28;20168;-62
2022/03/11 00:09:19;;;;;;;17.63;11.97;;;3.90;1.00;;;;;;5117095;28;20248;-62
2022/03/11 00:11:45;;;;;;;18.07;12.20;;;3.90;1.00;;;;;;5117019;28;20172;-62
2022/03/11 00:14:10;;;;;;;22.87;13.43;;;3.80;1.00;;;;;;5117190;28;20552;-62
2022/03/11 00:16:36;;;;;;;17.47;12.00;;;3.80;1.00;;;;;;5117096;28;20256;-62
2022/03/11 00:19:02;;;;;;;17.70;12.57;;;3.80;1.00;;;;;;5118046;28;20200;-62
2022/03/11 00:21:28;;;;;;;19.33;11.93;;;3.80;1.00;;;;;;5118200;28;20177;-62
2022/03/11 00:23:53;;;;;;;20.10;13.43;;;3.70;1.00;;;;;;5117643;28;20176;-62
2022/03/11 00:26:19;;;;;;;20.23;12.13;;;3.80;1.00;;;;;;5116827;28;20643;-62
2022/03/11 00:28:45;;;;;;;17.00;11.70;;;3.60;1.00;;;;;;5116737;28;20196;-62
2022/03/11 00:31:10;;;;;;;18.23;12.87;;;3.70;1.00;;;;;;5116826;28;20180;-62
2022/03/11 00:33:36;;;;;;;19.73;12.50;;;3.70;1.00;;;;;;5115559;28;20179;-62
2022/03/11 00:36:02;;;;;;;17.53;12.17;;;3.60;1.00;;;;;;5115340;28;20176;-62
2022/03/11 00:38:28;;;;;;;16.30;11.40;;;3.60;1.00;;;;;;5116435;28;20204;-62
2022/03/11 00:40:56;;;;;;;18.83;11.63;;;3.70;1.00;;;;;;5116525;28;20168;-63
2022/03/11 00:43:26;;;;;;;13.47;10.70;;;3.70;1.00;;;;;;5116563;28;20173;-62
2022/03/11 00:45:52;;;;;;;14.83;10.87;;;3.90;1.00;;;;;;5116397;28;20173;-62
2022/03/11 00:48:18;;;;;;;15.53;10.77;;;3.90;1.00;;;;;;5116302;28;20214;-63
2022/03/11 00:50:44;;;;;;;17.63;11.13;;;3.90;1.00;;;;;;5116319;28;20205;-62
2022/03/11 00:53:10;;;;;;;13.90;10.53;;;4.00;1.00;;;;;;5116281;28;20168;-62
2022/03/11 00:55:36;;;;;;;16.80;10.63;;;4.10;1.00;;;;;;5116708;28;20191;-62
2022/03/11 00:58:01;;;;;;;12.70;10.20;;;4.20;1.00;;;;;;5116046;28;20225;-63
2022/03/11 01:00:27;;;;;;;13.97;10.23;;;4.20;1.00;;;;;;5116162;28;20226;-62
2022/03/11 01:02:53;;;;;;;13.20;9.77;;;4.30;1.00;;;;;;5116778;28;20694;-63
2022/03/11 01:05:22;;;;;;;14.53;10.30;;;4.30;1.00;;;;;;5114783;28;20654;-63
2022/03/11 01:07:48;;;;;;;13.90;10.80;;;4.40;1.00;;;;;;5114617;28;20172;-63
2022/03/11 01:10:14;;;;;;;14.40;10.27;;;4.40;1.00;;;;;;5116241;28;20192;-63
2022/03/11 01:12:39;;;;;;;14.93;10.67;;;4.40;1.00;;;;;;5116235;28;20588;-62
2022/03/11 01:15:06;;;;;;;13.97;10.47;;;4.30;1.00;;;;;;5116045;28;20180;-62
2022/03/11 01:17:32;;;;;;;13.90;10.47;;;4.30;1.00;;;;;;5115862;28;20179;-62
2022/03/11 01:19:58;;;;;;;16.47;10.97;;;4.30;1.00;;;;;;5114369;28;20257;-63
2022/03/11 01:22:24;;;;;;;14.03;9.93;;;4.30;1.00;;;;;;5115768;28;20641;-62
2022/03/11 01:24:50;;;;;;;13.57;10.67;;;4.20;1.00;;;;;;5115644;28;20172;-62
2022/03/11 01:27:15;;;;;;;15.63;10.53;;;4.20;1.00;;;;;;5115615;27;20306;-62
2022/03/11 01:29:41;;;;;;;13.43;9.83;;;4.20;1.00;;;;;;5115682;28;20572;-63
2022/03/11 01:32:07;;;;;;;13.47;9.67;;;4.20;1.00;;;;;;5115616;28;20179;-62
2022/03/11 01:34:33;;;;;;;13.10;10.83;;;4.20;1.00;;;;;;5115654;28;20181;-63
2022/03/11 01:36:58;;;;;;;15.50;10.53;;;4.20;1.00;;;;;;5115483;28;20172;-62
2022/03/11 01:39:24;;;;;;;12.60;10.03;;;4.20;1.00;;;;;;5114379;28;20283;-63
2022/03/11 01:41:50;;;;;;;17.93;11.47;;;4.20;1.00;;;;;;5115349;28;20173;-63
2022/03/11 01:44:16;;;;;;;15.73;10.43;;;4.20;1.00;;;;;;5115610;28;20583;-63
2022/03/11 01:46:41;;;;;;;12.77;9.93;;;4.20;1.00;;;;;;5115508;28;20172;-63
2022/03/11 01:49:09;;;;;;;16.13;10.13;;;4.20;1.00;;;;;;5115350;28;20192;-62
2022/03/11 01:51:41;;;;;;;15.33;10.93;;;4.20;1.00;;;;;;5115392;28;20172;-62
2022/03/11 01:54:08;;;;;;;14.57;10.50;;;4.10;1.00;;;;;;5115243;27;20160;-63
2022/03/11 01:56:36;;;;;;;15.47;10.13;;;4.10;1.00;;;;;;5115382;28;20169;-63
2022/03/11 01:59:02;;;;;;;13.57;9.97;;;4.10;1.00;;;;;;5115261;28;20207;-63
2022/03/11 02:01:28;;;;;;;13.63;10.70;;;4.10;1.00;;;;;;5115295;28;20195;-63
2022/03/11 02:03:57;;;;;;;14.73;10.03;;;4.10;1.00;;;;;;5115370;28;20225;-63
2022/03/11 02:06:23;;;;;;;16.27;10.67;;;4.10;1.00;;;;;;5115543;28;20237;-63
2022/03/11 02:08:50;;;;;;;17.30;10.83;;;4.10;1.00;;;;;;5114699;28;20212;-62
2022/03/11 02:11:16;;;;;;;15.43;10.77;;;4.10;1.00;;;;;;5114779;28;20641;-63
2022/03/11 02:13:43;;;;;;;16.57;11.20;;;4.10;1.00;;;;;;5114787;28;20188;-63
2022/03/11 02:16:16;;;;;;;14.63;10.97;;;4.20;1.00;;;;;;5114977;28;20183;-62
2022/03/11 02:18:42;;;;;;;15.37;10.77;;;4.20;1.00;;;;;;5114872;28;20197;-63
2022/03/11 02:21:09;;;;;;;14.30;10.73;;;4.20;1.00;;;;;;5114586;28;20251;-62
2022/03/11 02:23:45;;;;;;;16.87;11.60;;;4.20;1.00;;;;;;5114506;28;20653;-62
2022/03/11 02:26:12;;;;;;;15.47;10.67;;;4.30;1.00;;;;;;5114841;28;20152;-62
2022/03/11 02:28:38;;;;;;;17.77;11.37;;;4.40;1.00;;;;;;5114551;28;20188;-63
2022/03/11 02:31:04;;;;;;;15.37;10.87;;;4.50;1.00;;;;;;5114567;28;20173;-63
2022/03/11 02:33:30;;;;;;;15.27;11.07;;;4.50;1.00;;;;;;5113204;28;20176;-63
2022/03/11 02:35:56;;;;;;;16.77;11.30;;;4.60;1.00;;;;;;5114555;28;20168;-62
2022/03/11 02:38:21;;;;;;;17.00;11.20;;;4.70;1.00;;;;;;5113363;28;20287;-63
2022/03/11 02:40:47;;;;;;;17.17;11.43;;;4.80;1.00;;;;;;5114725;28;20490;-63
2022/03/11 02:43:13;;;;;;;17.67;11.83;;;4.80;1.00;;;;;;5115058;28;20157;-64
2022/03/11 02:45:39;;;;;;;16.53;11.90;;;4.90;1.00;;;;;;5114197;28;20168;-63
2022/03/11 02:48:05;;;;;;;15.03;10.70;;;5.00;1.00;;;;;;5114010;28;20168;-63
2022/03/11 02:50:31;;;;;;;15.60;10.60;;;5.00;1.00;;;;;;5114015;28;20180;-63
2022/03/11 02:52:57;;;;;;;14.87;10.53;;;5.10;1.00;;;;;;5114244;28;20209;-63
2022/03/11 02:55:23;;;;;;;16.33;11.37;;;5.10;1.00;;;;;;5115068;28;20630;-63
2022/03/11 02:57:48;;;;;;;16.60;11.00;;;5.10;1.00;;;;;;5114151;28;20175;-63
2022/03/11 03:00:14;;;;;;;16.77;11.23;;;5.10;1.00;;;;;;5113898;28;20629;-62
2022/03/11 03:02:40;;;;;;;17.37;10.63;;;5.10;1.00;;;;;;5114368;28;20172;-63
2022/03/11 03:05:07;;;;;;;14.60;10.17;;;5.00;1.00;;;;;;5114602;28;20225;-63
2022/03/11 03:07:32;;;;;;;14.53;11.33;;;5.10;1.00;;;;;;5114210;28;20172;-63
2022/03/11 03:09:58;;;;;;;15.33;10.67;;;5.10;1.00;;;;;;5113779;28;20633;-62
2022/03/11 03:12:26;;;;;;;15.67;11.50;;;5.10;1.00;;;;;;5113758;28;20211;-63
2022/03/11 03:14:52;;;;;;;16.70;12.00;;;5.20;1.00;;;;;;5113967;28;20642;-63
2022/03/11 03:17:18;;;;;;;16.63;10.73;;;5.20;1.00;;;;;;5114061;28;20181;-63
2022/03/11 03:19:44;;;;;;;15.63;10.97;;;5.20;1.00;;;;;;5113849;28;20200;-63
2022/03/11 03:22:11;;;;;;;15.70;10.90;;;5.20;1.00;;;;;;5112708;28;20176;-63
2022/03/11 03:24:37;;;;;;;15.57;11.07;;;5.10;1.00;;;;;;5114388;28;20179;-63
2022/03/11 03:27:03;;;;;;;13.70;10.57;;;5.10;1.00;;;;;;5113780;28;20172;-63
2022/03/11 03:29:29;;;;;;;17.93;11.43;;;4.90;1.00;;;;;;5113805;28;20199;-63
2022/03/11 03:31:58;;;;;;;15.03;10.70;;;4.80;1.00;;;;;;5114083;28;20169;-63
2022/03/11 03:34:31;;;;;;;16.03;10.90;;;4.70;1.00;;;;;;5113722;28;20176;-63
2022/03/11 03:37:01;;;;;;;15.80;11.43;;;4.60;1.00;;;;;;5113652;28;20161;-63
2022/03/11 03:39:27;;;;;;;14.20;10.27;;;4.60;1.00;;;;;;5113657;28;20203;-63
2022/03/11 03:41:54;;;;;;;17.67;11.73;;;4.50;1.00;;;;;;5113716;28;20678;-63
2022/03/11 03:44:21;;;;;;;17.53;11.63;;;4.50;1.00;;;;;;5112244;28;20657;-62
2022/03/11 03:46:47;;;;;;;16.40;11.27;;;4.50;1.00;;;;;;5113670;28;20180;-62
2022/03/11 03:49:13;;;;;;;14.70;10.63;;;4.50;1.00;;;;;;5113452;28;20192;-64
2022/03/11 03:51:39;;;;;;;17.57;11.20;;;4.50;1.00;;;;;;5113586;28;20551;-63
2022/03/11 03:54:10;;;;;;;17.10;12.13;;;4.60;1.00;;;;;;5113450;28;20177;-62
2022/03/11 03:56:36;;;;;;;15.97;11.77;;;4.60;1.00;;;;;;5114087;28;20243;-62
2022/03/11 03:59:04;;;;;;;14.17;11.40;;;4.60;1.00;;;;;;5113220;28;20204;-62
2022/03/11 04:01:35;;;;;;;14.33;11.37;;;4.70;1.00;;;;;;5114039;28;20156;-63
2022/03/11 04:04:03;;;;;;;21.87;12.63;;;4.60;1.00;;;;;;5117643;28;20161;-62
2022/03/11 04:06:36;;;;;;;17.07;11.87;;;4.70;1.00;;;;;;5117624;28;20191;-62
2022/03/11 04:09:04;;;;;;;17.20;11.87;;;4.80;1.00;;;;;;5116937;28;20250;-63
2022/03/11 04:11:30;;;;;;;14.73;10.43;;;5.00;1.00;;;;;;5117213;28;20187;-60
2022/03/11 04:13:56;;;;;;;18.23;11.97;;;4.90;1.00;;;;;;5115937;28;20556;-61
2022/03/11 04:16:23;;;;;;;21.67;12.33;;;4.90;1.00;;;;;;5117508;28;20168;-61
2022/03/11 04:18:49;;;;;;;19.50;12.27;;;4.90;1.00;;;;;;5116927;28;20212;-62
2022/03/11 04:21:17;;;;;;;16.70;12.97;;;4.90;1.00;;;;;;5116993;27;20184;-61
2022/03/11 04:23:45;;;;;;;19.20;13.07;;;4.90;1.00;;;;;;5117237;28;20214;-61
2022/03/11 04:26:10;;;;;;;14.93;11.53;;;4.90;1.00;;;;;;5115577;28;20590;-61
2022/03/11 04:28:37;;;;;;;18.03;12.57;;;4.90;1.00;;;;;;5117144;28;20273;-63
2022/03/11 04:31:07;;;;;;;15.67;11.77;;;4.80;1.00;;;;;;5116830;28;20180;-63
2022/03/11 04:33:34;;;;;;;16.50;12.60;;;4.70;1.00;;;;;;5116720;28;20528;-63
2022/03/11 04:36:00;;;;;;;16.70;12.53;;;4.80;1.00;;;;;;5116849;28;20242;-63
2022/03/11 04:38:26;;;;;;;20.07;12.90;;;4.80;1.00;;;;;;5115213;28;20206;-63
2022/03/11 04:40:52;;;;;;;23.60;13.00;;;4.70;1.00;;;;;;5116916;28;20181;-63
2022/03/11 04:43:18;;;;;;;20.50;13.53;;;4.70;1.00;;;;;;5116891;28;20172;-63
2022/03/11 04:45:44;;;;;;;16.37;12.67;;;4.60;1.00;;;;;;5115891;28;20588;-63
2022/03/11 04:48:10;;;;;;;15.77;11.97;;;4.60;1.00;;;;;;5116821;28;20181;-63
2022/03/11 04:50:36;;;;;;;18.80;13.10;;;4.50;1.00;;;;;;5115533;28;20180;-62
2022/03/11 04:53:03;;;;;;;20.63;13.30;;;4.50;1.00;;;;;;5115363;28;20180;-62
2022/03/11 04:55:29;;;;;;;17.87;13.10;;;4.50;1.00;;;;;;5115033;28;20215;-62
2022/03/11 04:57:54;;;;;;;20.30;13.53;;;4.40;1.00;;;;;;5115012;28;20177;-63
2022/03/11 05:00:20;;;;;;;19.30;13.77;;;4.30;1.00;;;;;;5116338;28;20257;-63
2022/03/11 05:02:46;;;;;;;19.30;12.73;;;4.40;1.00;;;;;;5116198;28;20539;-63
2022/03/11 05:05:13;;;;;;;20.47;13.23;;;4.30;1.00;;;;;;5116070;28;20173;-63
2022/03/11 05:07:39;;;;;;;19.87;13.43;;;4.30;1.00;;;;;;5116371;28;20253;-63
2022/03/11 05:10:07;;;;;;;18.77;13.10;;;4.30;1.00;;;;;;5116231;28;20279;-61
2022/03/11 05:12:35;;;;;;;20.90;14.53;;;4.20;1.00;;;;;;5115807;28;20180;-62
2022/03/11 05:15:01;;;;;;;19.80;12.87;;;4.20;1.00;;;;;;5115927;28;20177;-62
2022/03/11 05:17:27;;;;;;;20.83;13.13;;;4.20;1.00;;;;;;5115932;28;20191;-62
2022/03/11 05:19:53;;;;;;;21.33;14.23;;;4.20;1.00;;;;;;5115786;28;20708;-62
2022/03/11 05:22:19;;;;;;;20.30;13.53;;;4.20;1.00;;;;;;5115853;28;20169;-62
2022/03/11 05:24:45;;;;;;;19.37;13.20;;;4.10;1.00;;;;;;5114720;28;20223;-62
2022/03/11 05:27:11;;;;;;;21.60;15.00;;;4.20;1.00;;;;;;5115724;28;20200;-62
2022/03/11 05:29:37;;;;;;;19.53;13.90;;;4.20;1.00;;;;;;5115576;28;20203;-61
2022/03/11 05:32:03;;;;;;;24.67;14.47;;;4.30;1.00;;;;;;5115388;28;20173;-61
2022/03/11 05:34:29;;;;;;;25.13;14.70;;;4.30;1.00;;;;;;5115546;28;20177;-62
2022/03/11 05:36:55;;;;;;;21.30;14.10;;;4.30;1.00;;;;;;5115575;28;20515;-62
2022/03/11 05:39:21;;;;;;;27.80;16.33;;;4.30;1.00;;;;;;5113827;28;20258;-62
2022/03/11 05:41:46;;;;;;;21.60;15.43;;;4.30;1.00;;;;;;5115141;28;20199;-62
2022/03/11 05:44:24;;;;;;;26.73;16.60;;;4.40;1.00;;;;;;5115165;28;20168;-62
2022/03/11 05:46:52;;;;;;;24.50;16.10;;;4.40;1.00;;;;;;5115407;28;20190;-61
2022/03/11 05:49:18;;;;;;;21.27;14.97;;;4.40;1.00;;;;;;5114985;28;20200;-62
2022/03/11 05:51:43;;;;;;;21.30;15.27;;;4.50;1.00;;;;;;5115324;28;20180;-62
2022/03/11 05:54:09;;;;;;;20.77;14.80;;;4.50;1.00;;;;;;5115544;28;20180;-61
2022/03/11 05:56:35;;;;;;;24.00;14.83;;;4.50;1.00;;;;;;5114899;28;20215;-61
2022/03/11 05:59:01;;;;;;;24.70;14.57;;;4.50;1.00;;;;;;5114981;28;20303;-62
2022/03/11 06:01:27;;;;;;;23.10;14.93;;;4.50;1.00;;;;;;5115086;28;20654;-62
2022/03/11 06:03:52;;;;;;;22.47;14.93;;;4.50;1.00;;;;;;5115235;28;20184;-62
2022/03/11 06:06:18;;;;;;;21.70;14.57;;;4.50;1.00;;;;;;5114666;28;20198;-61
2022/03/11 06:08:44;;;;;;;21.70;15.00;;;4.50;1.00;;;;;;5114545;28;20219;-61
2022/03/11 06:11:09;;;;;;;21.70;15.10;;;4.50;1.00;;;;;;5114520;28;20230;-61
2022/03/11 06:13:36;;;;;;;21.37;14.87;;;4.50;1.00;;;;;;5114822;28;20233;-62
2022/03/11 06:16:03;;;;;;;23.67;16.10;;;4.50;1.00;;;;;;5114763;28;20248;-62
2022/03/11 06:18:29;;;;;;;24.13;15.63;;;4.50;1.00;;;;;;5114316;28;20200;-63
2022/03/11 06:20:56;;;;;;;19.73;14.67;;;4.50;1.00;;;;;;5114973;28;20210;-62
2022/03/11 06:23:23;;;;;;;25.67;15.10;;;4.50;1.00;;;;;;5114433;28;20710;-62
2022/03/11 06:25:49;;;;;;;21.40;14.03;;;4.50;1.00;;;;;;5114016;28;20541;-62
2022/03/11 06:28:14;;;;;;;24.87;13.90;;;4.50;1.00;;;;;;5114332;28;20180;-62
2022/03/11 06:30:40;;;;;;;19.80;14.20;;;4.40;1.00;;;;;;5114234;28;20714;-61
2022/03/11 06:33:06;;;;;;;21.10;15.10;;;4.40;1.00;;;;;;5113226;28;20650;-62
2022/03/11 06:35:33;;;;;;;24.97;16.33;;;4.40;1.00;;;;;;5114288;28;20164;-62
2022/03/11 06:37:59;;;;;;;24.67;15.93;;;4.60;1.00;;;;;;5114560;28;20181;-62
2022/03/11 06:40:25;;;;;;;23.37;16.27;;;4.60;1.00;;;;;;5114162;28;20207;-61
2022/03/11 06:42:53;;;;;;;20.37;14.27;;;4.60;1.00;;;;;;5114494;28;20204;-61
2022/03/11 06:45:19;;;;;;;20.80;15.27;;;4.60;1.00;;;;;;5114071;28;20247;-62
2022/03/11 06:47:46;;;;;;;21.37;14.27;;;4.70;1.00;;;;;;5114066;28;20211;-61
2022/03/11 06:50:12;;;;;;;21.43;14.37;;;4.80;1.00;;;;;;5113876;28;20196;-62
2022/03/11 06:52:38;;;;;;;22.40;15.37;;;4.80;1.00;;;;;;5114295;28;20250;-61
2022/03/11 06:55:05;;;;;;;19.90;15.13;;;4.90;1.00;;;;;;5114445;28;20622;-61
2022/03/11 06:57:32;;;;;;;20.23;14.57;;;4.90;1.00;;;;;;5114467;28;20169;-61
2022/03/11 06:59:58;;;;;;;24.63;14.60;;;5.10;1.00;;;;;;5113699;28;20243;-62
2022/03/11 07:02:23;;;;;;;21.37;15.63;;;5.10;1.00;;;;;;5114085;28;20203;-62
2022/03/11 07:04:49;;;;;;;24.20;16.03;;;5.20;1.00;;;;;;5114319;28;20176;-62
2022/03/11 07:07:15;;;;;;;23.80;15.50;;;5.30;1.00;;;;;;5112474;28;20187;-62
2022/03/11 07:09:40;;;;;;;24.77;16.33;;;5.40;1.00;;;;;;5113687;28;20212;-61
2022/03/11 07:12:06;;;;;;;26.03;16.37;;;5.40;1.00;;;;;;5113684;28;20665;-61
2022/03/11 07:14:35;;;;;;;21.20;15.03;;;5.50;1.00;;;;;;5113676;28;20256;-63
2022/03/11 07:17:01;;;;;;;23.33;15.57;;;5.60;1.00;;;;;;5113954;28;20537;-62
2022/03/11 07:19:27;;;;;;;22.53;15.40;;;5.70;1.00;;;;;;5113489;28;20207;-62
2022/03/11 07:21:54;;;;;;;22.53;15.13;;;5.80;1.00;;;;;;5113602;28;20169;-61
2022/03/11 07:24:20;;;;;;;22.70;15.37;;;5.90;1.00;;;;;;5113823;28;20187;-62
2022/03/11 07:26:45;;;;;;;23.47;15.70;;;6.00;1.00;;;;;;5113472;28;20181;-62
2022/03/11 07:29:11;;;;;;;20.00;15.43;;;6.20;1.00;;;;;;5113523;28;20207;-62
2022/03/11 07:31:37;;;;;;;23.93;16.47;;;6.30;1.00;;;;;;5114053;28;20180;-62
2022/03/11 07:34:03;;;;;;;22.63;15.17;;;6.50;1.00;;;;;;5113448;28;20255;-62
2022/03/11 07:36:29;;;;;;;22.63;15.40;;;6.70;1.00;;;;;;5115559;28;20222;-61
2022/03/11 07:38:54;;;;;;;22.40;15.40;;;6.90;1.00;;;;;;5117550;28;20669;-61
2022/03/11 07:41:20;;;;;;;20.57;14.47;;;7.10;1.00;;;;;;5116185;28;20179;-64
2022/03/11 07:43:46;;;;;;;22.33;15.03;;;7.30;1.00;;;;;;5117747;28;20173;-61
2022/03/11 07:46:16;;;;;;;20.83;14.57;;;7.30;1.00;;;;;;5117647;28;20191;-61
2022/03/11 07:48:42;;;;;;;22.40;15.00;;;7.50;1.00;;;;;;5117314;28;20204;-61
2022/03/11 07:51:08;;;;;;;20.60;14.87;;;7.60;1.00;;;;;;5117323;28;20230;-61
2022/03/11 07:53:34;;;;;;;24.47;14.70;;;7.80;1.00;;;;;;5117283;28;20209;-62
2022/03/11 07:56:00;;;;;;;27.27;14.83;;;8.00;1.00;;;;;;5117136;28;20177;-62
2022/03/11 07:58:26;;;;;;;22.57;14.60;;;8.10;1.00;;;;;;5117333;28;20525;-61
2022/03/11 08:00:52;;;;;;;21.20;14.47;;;8.20;1.00;;;;;;5117257;28;20172;-61
2022/03/11 08:03:19;;;;;;;21.57;14.07;;;8.30;1.00;;;;;;5117215;28;20168;-63
2022/03/11 08:05:45;;;;;;;24.53;15.20;;;8.40;1.00;;;;;;5117362;28;20204;-63
2022/03/11 08:08:11;;;;;;;20.00;14.53;;;8.50;1.00;;;;;;5116971;28;20202;-62
2022/03/11 08:10:37;;;;;;;20.23;14.40;;;8.50;1.00;;;;;;5117440;28;20677;-61
2022/03/11 08:13:06;;;;;;;22.03;13.97;;;8.50;1.00;;;;;;5116863;28;20172;-62
2022/03/11 08:15:32;;;;;;;21.07;14.40;;;8.60;1.00;;;;;;5117115;28;20650;-62
2022/03/11 08:17:58;;;;;;;19.53;13.63;;;8.70;1.00;;;;;;5116790;28;20172;-61
2022/03/11 08:20:24;;;;;;;21.07;13.67;;;8.80;1.00;;;;;;5116608;28;20283;-63
2022/03/11 08:22:50;;;;;;;22.67;15.17;;;8.90;1.00;;;;;;5116954;28;20572;-63
2022/03/11 08:25:16;;;;;;;19.73;14.37;;;9.10;1.00;;;;;;5116660;28;20515;-61
2022/03/11 08:27:42;;;;;;;23.03;13.97;;;9.80;1.00;;;;;;5116595;28;20169;-62
2022/03/11 08:30:10;;;;;;;23.25;13.80;;;11.40;1.00;;;;;;5116733;28;20718;-63
2022/03/11 08:32:37;;;;;;;18.63;13.43;;;13.10;1.00;;;;;;5116805;28;20177;-62
2022/03/11 08:35:03;;;;;;;20.85;14.20;;;14.40;1.00;;;;;;5116433;28;20654;-63
2022/03/11 08:37:28;;;;;;;20.75;14.10;;;15.30;1.00;;;;;;5116382;28;20180;-63
2022/03/11 08:39:54;;;;;;;19.88;13.35;;;15.70;1.00;;;;;;5116284;27;20561;-63
2022/03/11 08:42:21;;;;;;;20.20;13.05;;;16.10;1.00;;;;;;5115095;28;20546;-63
2022/03/11 08:44:47;;;;;;;17.67;12.85;;;16.60;1.00;;;;;;5116543;28;20572;-62
2022/03/11 08:47:13;;;;;;;18.73;13.77;;;17.00;1.00;;;;;;5115647;28;20678;-63
2022/03/11 08:49:39;;;;;;;19.58;13.88;;;17.20;1.00;;;;;;5116131;28;20249;-62
2022/03/11 08:52:05;;;;;;;16.95;13.00;;;17.30;1.00;;;;;;5116428;28;20180;-62
2022/03/11 08:54:31;;;;;;;22.08;14.00;;;17.20;1.00;;;;;;5116711;28;20178;-62
2022/03/11 08:56:59;;;;;;;19.20;13.40;;;17.50;1.00;;;;;;5116052;28;20188;-62
2022/03/11 08:59:25;;;;;;;18.08;13.15;;;17.40;1.00;;;;;;5116420;28;20286;-62
2022/03/11 09:01:51;;;;;;;18.00;12.90;;;17.10;1.00;;;;;;5116464;28;20211;-63
2022/03/11 09:04:16;;;;;;;17.63;12.75;;;17.30;1.00;;;;;;5115907;28;20193;-62
2022/03/11 09:06:42;;;;;;;17.73;12.45;;;17.60;1.00;;;;;;5115806;28;20180;-62
2022/03/11 09:09:08;;;;;;;17.50;12.40;;;17.30;1.00;;;;;;5115753;28;20253;-63
2022/03/11 09:11:35;;;;;;;17.58;13.30;;;17.10;1.00;;;;;;5115774;28;20175;-62
2022/03/11 09:14:01;;;;;;;18.92;13.05;;;16.80;1.00;;;;;;5115712;27;20771;-62
2022/03/11 09:16:27;;;;;;;18.67;13.02;;;16.60;1.00;;;;;;5115973;28;20539;-63
2022/03/11 09:18:54;;;;;;;17.95;12.57;;;16.40;1.00;;;;;;5115500;28;20564;-63
2022/03/11 09:21:21;;;;;;;16.73;12.80;;;15.60;1.00;;;;;;5115531;28;20160;-62
2022/03/11 09:23:47;;;;;;;18.50;13.10;;;15.20;1.00;;;;;;5115528;28;20176;-62
2022/03/11 09:26:13;;;;;;;19.92;12.48;;;14.60;1.00;;;;;;5115765;28;20642;-62
2022/03/11 09:28:40;;;;;;;18.60;13.30;;;14.00;1.00;;;;;;5115436;27;20188;-62
2022/03/11 09:31:08;;;;;;;17.65;13.07;;;13.70;1.00;;;;;;5115337;28;20545;-62
2022/03/11 09:33:40;;;;;;;22.55;14.02;;;13.50;1.00;;;;;;5115574;28;20169;-62
2022/03/11 09:36:07;;;;;;;20.92;13.80;;;13.20;1.00;;;;;;5115576;28;20190;-62
2022/03/11 09:38:36;;;;;;;19.35;13.20;;;13.10;1.00;;;;;;5115080;28;20217;-62
2022/03/11 09:41:03;;;;;;;22.75;13.25;;;13.00;1.00;;;;;;5115364;28;20247;-62
2022/03/11 09:43:29;;;;;;;19.60;13.55;;;13.00;1.00;;;;;;5115424;28;20177;-63
2022/03/11 09:45:56;;;;;;;21.20;13.07;;;12.90;1.00;;;;;;5116348;28;20520;-63
2022/03/11 09:48:22;;;;;;;17.63;13.52;;;12.90;1.00;;;;;;5113888;27;20196;-62
2022/03/11 09:50:48;;;;;;;17.75;12.90;;;12.80;1.00;;;;;;5115045;28;20202;-63
2022/03/11 09:53:15;;;;;;;18.23;12.85;;;12.70;1.00;;;;;;5114878;28;20179;-63
2022/03/11 09:55:42;;;;;;;19.08;12.25;;;12.70;1.00;;;;;;5113664;28;20184;-62
2022/03/11 09:58:08;;;;;;;19.92;13.10;;;12.60;1.00;;;;;;5115055;28;20255;-64
2022/03/11 10:00:35;;;;;;;15.40;11.63;;;12.60;1.00;;;;;;5113746;28;20743;-63
2022/03/11 10:03:01;;;;;;;15.23;11.88;;;12.50;1.00;;;;;;5115268;28;20558;-62
2022/03/11 10:05:48;;;;;;;17.92;12.15;;;12.50;1.00;;;;;;5114792;28;20169;-63
2022/03/11 10:08:14;;;;;;;19.87;12.83;;;12.40;1.00;;;;;;5114533;28;20257;-63
2022/03/11 10:10:41;;;;;;;17.70;12.27;;;12.40;1.00;;;;;;5114707;28;20181;-62
2022/03/11 10:13:12;;;;;;;16.88;12.00;;;12.50;1.00;;;;;;5113277;28;20199;-62
2022/03/11 10:15:40;;;;;;;18.27;12.50;;;12.50;1.00;;;;;;5114847;28;20249;-63
2022/03/11 10:18:09;;;;;;;18.90;12.68;;;12.50;1.00;;;;;;5114434;28;20659;-62
2022/03/11 10:20:36;;;;;;;19.00;12.65;;;12.70;1.00;;;;;;5114460;28;20200;-62
2022/03/11 10:23:11;;;;;;;18.73;11.70;;;12.60;1.00;;;;;;5113204;28;20238;-64
2022/03/11 10:25:37;;;;;;;17.23;11.45;;;12.80;1.00;;;;;;5114937;28;20240;-62
2022/03/11 10:28:08;;;;;;;19.35;11.63;;;12.80;1.00;;;;;;5114290;28;20204;-62
2022/03/11 10:30:39;;;;;;;16.80;11.48;;;12.70;1.00;;;;;;5114329;28;20160;-62
2022/03/11 10:33:10;;;;;;;17.83;11.38;;;13.00;1.00;;;;;;5114291;28;20165;-62
2022/03/11 10:35:39;;;;;;;18.92;12.15;;;12.90;1.00;;;;;;5114494;28;20214;-62
2022/03/11 10:38:10;;;;;;;17.60;11.60;;;12.90;1.00;;;;;;5114115;28;20187;-62
2022/03/11 10:40:50;;;;;;;17.73;10.77;;;12.90;1.00;;;;;;5114345;28;20212;-62
2022/03/11 10:43:17;;;;;;;17.58;11.20;;;13.00;1.00;;;;;;5114091;28;20248;-63
2022/03/11 10:45:55;;;;;;;17.00;12.20;;;13.00;1.00;;;;;;5114382;28;20570;-62
2022/03/11 10:48:42;;;;;;;15.55;11.50;;;13.00;1.00;;;;;;5113952;28;20188;-62
2022/03/11 10:51:30;;;;;;;20.08;12.18;;;13.00;1.00;;;;;;5114059;28;20172;-62
2022/03/11 10:53:56;;;;;;;18.15;11.70;;;13.00;1.00;;;;;;5114562;28;20476;-62
2022/03/11 10:56:33;;;;;;;16.77;12.40;;;13.00;1.00;;;;;;5113917;28;20179;-62
2022/03/11 10:58:59;;;;;;;19.70;11.73;;;13.00;1.00;;;;;;5113855;28;20210;-61
2022/03/11 11:01:38;;;;;;;20.10;12.57;;;13.10;1.00;;;;;;5113909;28;20181;-61
2022/03/11 11:04:07;;;;;;;19.23;12.40;;;13.20;1.00;;;;;;5113179;28;20172;-62
2022/03/11 11:06:34;;;;;;;16.70;11.55;;;13.50;1.00;;;;;;5114225;28;20601;-62
2022/03/11 11:09:00;;;;;;;18.55;11.52;;;13.60;1.00;;;;;;5112632;28;20251;-62
2022/03/11 11:11:26;;;;;;;16.13;12.00;;;13.70;1.00;;;;;;5114042;28;20176;-62
2022/03/11 11:13:52;;;;;;;14.75;11.80;;;13.70;1.00;;;;;;5113716;28;20176;-63
2022/03/11 11:16:24;;;;;;;15.15;10.45;;;13.70;1.00;;;;;;5114004;28;20176;-62
2022/03/11 11:18:52;;;;;;;17.98;11.63;;;13.80;1.00;;;;;;5113543;28;20196;-62
2022/03/11 11:21:24;;;;;;;18.20;12.13;;;13.90;1.00;;;;;;5113658;28;20168;-62
2022/03/11 11:23:56;;;;;;;18.38;11.25;;;14.00;1.00;;;;;;5113931;28;20153;-62
2022/03/11 11:26:23;;;;;;;18.17;11.20;;;14.10;1.00;;;;;;5113631;28;20622;-63
2022/03/11 11:28:59;;;;;;;17.42;12.13;;;14.30;1.00;;;;;;5113900;28;20606;-62
2022/03/11 11:31:25;;;;;;;14.88;11.15;;;14.50;1.00;;;;;;5113544;28;20583;-63
2022/03/11 11:33:51;;;;;;;15.70;10.80;;;14.70;1.00;;;;;;5113538;28;20204;-62
2022/03/11 11:36:43;;;;;;;16.88;11.93;;;15.10;1.00;;;;;;5113738;28;20172;-62
2022/03/11 11:39:11;;;;;;;17.33;11.32;;;15.40;1.00;;;;;;5111226;28;20645;-62
2022/03/11 11:41:37;;;;;;;18.55;11.27;;;15.20;1.00;;;;;;5113466;28;20577;-62
2022/03/11 11:44:08;;;;;;;18.13;11.38;;;15.20;1.00;;;;;;5113769;28;20160;-63
2022/03/11 11:46:37;;;;;;;16.85;11.55;;;15.40;1.00;;;;;;5113357;28;20662;-62
2022/03/11 11:49:22;;;;;;;15.60;11.32;;;15.50;1.00;;;;;;5113338;28;20279;-63
2022/03/11 11:51:47;;;;;;;15.60;11.70;;;15.40;1.00;;;;;;5113435;28;20206;-62
2022/03/11 11:54:13;;;;;;;17.70;11.23;;;14.90;1.00;;;;;;5113600;28;20657;-62
2022/03/11 11:56:44;;;;;;;18.52;11.10;;;15.10;1.00;;;;;;5113319;28;20259;-62
2022/03/11 11:59:11;;;;;;;19.42;12.13;;;15.20;1.00;;;;;;5113335;28;20211;-62
2022/03/11 12:01:47;;;;;;;15.27;10.88;;;15.50;1.00;;;;;;5111984;28;20204;-63
2022/03/11 12:04:25;;;;;;;15.75;11.25;;;15.90;1.00;;;;;;5113633;28;20168;-62
2022/03/11 12:07:10;;;;;;;15.02;10.85;;;16.00;1.00;;;;;;5111997;28;20298;-62
2022/03/11 12:09:41;;;;;;;16.60;11.00;;;16.30;1.00;;;;;;5113051;28;20212;-63
2022/03/11 12:12:44;;;;;;;16.92;10.95;;;16.60;1.00;;;;;;5113312;28;20198;-62
2022/03/11 12:15:11;;;;;;;16.50;10.52;;;16.90;1.00;;;;;;5113288;28;20209;-62
2022/03/11 12:18:03;;;;;;;17.10;11.20;;;16.80;1.00;;;;;;5113259;28;20169;-62
2022/03/11 12:23:05;;;;;;;17.02;10.30;;;16.90;1.00;;;;;;5114509;28;20153;-62
2022/03/11 12:25:33;;;;;;;21.40;11.02;;;17.00;1.00;;;;;;5115699;28;20185;-62
2022/03/11 12:28:05;;;;;;;16.08;11.20;;;17.30;1.00;;;;;;5116748;28;20558;-63
2022/03/11 12:30:33;;;;;;;15.60;10.15;;;17.30;1.00;;;;;;5116757;28;20179;-63
2022/03/11 12:33:01;;;;;;;16.90;10.60;;;17.60;1.00;;;;;;5115464;28;20546;-62
2022/03/11 12:35:27;;;;;;;15.70;10.63;;;17.40;1.00;;;;;;5115355;28;20735;-63
2022/03/11 12:37:52;;;;;;;18.63;11.35;;;17.80;1.00;;;;;;5115320;28;20289;-63
2022/03/11 12:40:23;;;;;;;15.68;11.60;;;17.90;1.00;;;;;;5116647;28;20208;-63
2022/03/11 12:42:49;;;;;;;19.33;10.90;;;18.10;1.00;;;;;;5116552;28;20225;-62
2022/03/11 12:45:36;;;;;;;18.95;11.30;;;18.30;1.00;;;;;;5116723;28;20164;-63
2022/03/11 12:48:03;;;;;;;15.70;11.40;;;18.10;1.00;;;;;;5116414;28;20160;-62